createdAt,value
2022-10-05T00:01:30.029Z,1.35
2022-10-05T00:04:07.213Z,2.38
2022-10-05T00:06:35.774Z,2.25
2022-10-05T00:09:11.852Z,2.20
2022-10-05T00:11:41.449Z,2.30
2022-10-05T00:14:19.718Z,2.30
2022-10-05T00:16:48.222Z,1.88
2022-10-05T00:19:24.715Z,2.60
2022-10-05T00:21:52.990Z,2.10
2022-10-05T00:24:21.944Z,1.90
2022-10-05T00:26:57.054Z,2.00
2022-10-05T00:29:26.393Z,2.00
2022-10-05T00:31:54.876Z,2.00
2022-10-05T00:34:23.167Z,2.00
2022-10-05T00:39:21.675Z,2.22
2022-10-05T00:42:26.143Z,2.10
2022-10-05T00:45:02.620Z,1.63
2022-10-05T00:47:39.511Z,1.35
2022-10-05T00:50:48.427Z,1.05
2022-10-05T00:53:31.145Z,2.00
2022-10-05T00:56:04.612Z,1.90
2022-10-05T00:58:53.268Z,1.67
2022-10-05T01:01:32.052Z,1.83
2022-10-05T01:04:14.368Z,1.90
2022-10-05T01:06:57.169Z,1.42
2022-10-05T01:09:34.849Z,1.50
2022-10-05T01:12:10.488Z,1.60
2022-10-05T01:14:51.510Z,2.20
2022-10-05T01:17:27.920Z,2.15
2022-10-05T01:20:28.267Z,2.00
2022-10-05T01:23:30.249Z,2.57
2022-10-05T01:26:18.523Z,2.43
2022-10-05T01:28:55.261Z,2.72
2022-10-05T01:31:29.586Z,2.20
2022-10-05T01:34:11.327Z,2.47
2022-10-05T01:36:50.822Z,2.50
2022-10-05T01:39:26.653Z,2.20
2022-10-05T01:42:06.431Z,2.53
2022-10-05T01:44:45.448Z,1.80
2022-10-05T01:47:22.589Z,2.17
2022-10-05T01:50:01.269Z,2.80
2022-10-05T01:52:40.841Z,2.67
2022-10-05T01:55:23.729Z,2.70
2022-10-05T01:58:12.017Z,2.90
2022-10-05T02:00:51.867Z,2.80
2022-10-05T02:03:25.617Z,2.37
2022-10-05T02:06:00.233Z,2.10
2022-10-05T02:08:38.285Z,2.42
2022-10-05T02:11:10.103Z,2.55
2022-10-05T02:13:44.034Z,1.35
2022-10-05T02:16:18.696Z,2.75
2022-10-05T02:18:53.193Z,1.90
2022-10-05T02:21:22.386Z,2.30
2022-10-05T02:23:56.661Z,2.40
2022-10-05T02:26:27.147Z,1.70
2022-10-05T02:29:00.396Z,2.70
2022-10-05T02:31:38.407Z,1.70
2022-10-05T02:34:28.279Z,2.50
2022-10-05T02:37:17.893Z,2.50
2022-10-05T02:40:03.598Z,2.50
2022-10-05T02:42:39.661Z,2.47
2022-10-05T02:45:24.015Z,2.67
2022-10-05T02:48:06.078Z,2.80
2022-10-05T02:50:45.964Z,2.43
2022-10-05T02:53:26.630Z,2.15
2022-10-05T02:56:09.569Z,2.95
2022-10-05T02:58:46.773Z,2.80
2022-10-05T03:01:26.188Z,2.35
2022-10-05T03:04:05.515Z,2.35
2022-10-05T03:06:43.214Z,2.83
2022-10-05T03:09:11.828Z,2.20
2022-10-05T03:11:50.077Z,2.40
2022-10-05T03:14:24.610Z,2.53
2022-10-05T03:17:07.651Z,2.20
2022-10-05T03:20:20.228Z,2.72
2022-10-05T03:22:56.201Z,2.63
2022-10-05T03:25:59.711Z,2.63
2022-10-05T03:28:36.259Z,2.40
2022-10-05T03:31:13.070Z,2.00
2022-10-05T03:33:46.273Z,2.53
2022-10-05T03:36:23.808Z,2.40
2022-10-05T03:38:59.807Z,2.35
2022-10-05T03:41:36.104Z,2.05
2022-10-05T03:44:24.528Z,2.50
2022-10-05T03:47:13.499Z,2.65
2022-10-05T03:50:05.707Z,2.70
2022-10-05T03:52:40.769Z,2.55
2022-10-05T03:55:20.687Z,2.78
2022-10-05T03:57:52.016Z,2.75
2022-10-05T04:00:23.892Z,2.77
2022-10-05T04:02:59.291Z,2.20
2022-10-05T04:05:33.447Z,2.63
2022-10-05T04:08:08.302Z,3.08
2022-10-05T04:10:45.059Z,2.20
2022-10-05T04:13:18.785Z,2.90
2022-10-05T04:15:54.651Z,2.40
2022-10-05T04:18:31.037Z,2.45
2022-10-05T04:21:04.679Z,1.95
2022-10-05T04:23:47.314Z,2.80
2022-10-05T04:26:20.713Z,2.75
2022-10-05T04:28:57.190Z,2.50
2022-10-05T04:31:46.826Z,2.17
2022-10-05T04:34:40.513Z,2.50
2022-10-05T04:37:15.667Z,2.40
2022-10-05T04:39:58.997Z,2.92
2022-10-05T04:42:35.520Z,2.22
2022-10-05T04:45:15.569Z,2.65
2022-10-05T04:48:25.274Z,2.50
2022-10-05T04:51:11.191Z,2.65
2022-10-05T04:53:52.268Z,2.45
2022-10-05T04:56:31.814Z,2.83
2022-10-05T04:59:24.897Z,2.60
2022-10-05T05:02:09.499Z,2.28
2022-10-05T05:05:20.562Z,1.88
2022-10-05T05:07:56.685Z,2.17
2022-10-05T05:11:10.350Z,2.53
2022-10-05T05:14:23.732Z,1.90
2022-10-05T05:17:07.605Z,2.28
2022-10-05T05:19:52.586Z,2.67
2022-10-05T05:22:30.303Z,2.50
2022-10-05T05:25:21.139Z,3.07
2022-10-05T05:27:54.871Z,2.65
2022-10-05T05:30:34.860Z,2.30
2022-10-05T05:33:18.857Z,2.65
2022-10-05T05:36:35.749Z,1.90
2022-10-05T05:39:22.925Z,3.05
2022-10-05T05:42:00.489Z,2.22
2022-10-05T05:44:37.825Z,2.90
2022-10-05T05:47:19.558Z,2.08
2022-10-05T05:50:17.637Z,3.03
2022-10-05T05:52:50.570Z,2.47
2022-10-05T05:55:29.062Z,2.40
2022-10-05T05:58:05.596Z,2.53
2022-10-05T06:00:42.113Z,2.50
2022-10-05T06:03:20.060Z,2.80
2022-10-05T06:05:52.268Z,2.57
2022-10-05T06:08:30.901Z,2.53
2022-10-05T06:11:06.333Z,2.20
2022-10-05T06:13:38.586Z,2.47
2022-10-05T06:16:18.591Z,2.72
2022-10-05T06:18:54.981Z,2.53
2022-10-05T06:21:32.845Z,2.42
2022-10-05T06:24:05.761Z,2.70
2022-10-05T06:27:13.178Z,2.17
2022-10-05T06:30:01.492Z,2.30
2022-10-05T06:32:34.396Z,2.75
2022-10-05T06:35:18.201Z,2.70
2022-10-05T06:38:06.187Z,2.70
2022-10-05T06:40:49.070Z,2.00
2022-10-05T06:43:44.481Z,2.47
2022-10-05T06:46:20.309Z,2.65
2022-10-05T06:49:20.483Z,2.20
2022-10-05T06:51:56.785Z,2.78
2022-10-05T06:54:42.632Z,2.17
2022-10-05T06:57:27.951Z,2.65
2022-10-05T07:00:03.083Z,2.30
2022-10-05T07:02:44.337Z,2.22
2022-10-05T07:06:04.312Z,2.17
2022-10-05T07:08:55.359Z,2.58
2022-10-05T07:11:54.304Z,2.50
2022-10-05T07:14:50.320Z,2.13
2022-10-05T07:17:35.357Z,2.20
2022-10-05T07:20:16.971Z,2.25
2022-10-05T07:23:05.259Z,2.50
2022-10-05T07:25:42.759Z,2.65
2022-10-05T07:28:17.724Z,2.42
2022-10-05T07:30:57.642Z,2.50
2022-10-05T07:33:31.317Z,2.15
2022-10-05T07:36:29.035Z,2.47
2022-10-05T07:39:03.549Z,2.28
2022-10-05T07:41:43.646Z,2.33
2022-10-05T07:44:18.673Z,2.17
2022-10-05T07:46:54.430Z,2.40
2022-10-05T07:49:41.127Z,2.78
2022-10-05T07:52:18.045Z,2.40
2022-10-05T07:54:59.286Z,2.00
2022-10-05T07:57:39.992Z,2.07
2022-10-05T08:00:15.114Z,2.50
2022-10-05T08:02:50.325Z,2.03
2022-10-05T08:05:26.208Z,2.40
2022-10-05T08:08:05.637Z,1.90
2022-10-05T08:10:42.677Z,2.22
2022-10-05T08:13:22.911Z,2.17
2022-10-05T08:15:56.430Z,2.10
2022-10-05T08:18:45.345Z,2.20
2022-10-05T08:21:16.932Z,2.10
2022-10-05T08:23:51.602Z,2.20
2022-10-05T08:26:29.781Z,2.38
2022-10-05T08:29:16.981Z,1.90
2022-10-05T08:31:50.617Z,2.00
2022-10-05T08:34:27.099Z,2.07
2022-10-05T08:37:05.796Z,1.70
2022-10-05T08:39:41.265Z,1.67
2022-10-05T08:42:46.374Z,1.80
2022-10-05T08:46:05.918Z,1.70
2022-10-05T08:49:34.858Z,1.80
2022-10-05T08:52:28.852Z,1.70
2022-10-05T08:55:34.845Z,1.90
2022-10-05T08:58:50.447Z,2.03
2022-10-05T09:01:30.228Z,1.85
2022-10-05T09:04:39.839Z,1.70
2022-10-05T09:07:25.284Z,2.03
2022-10-05T09:10:53.723Z,1.85
2022-10-05T09:13:58.006Z,1.48
2022-10-05T09:16:55.783Z,1.80
2022-10-05T09:20:11.576Z,1.48
2022-10-05T09:23:00.134Z,1.40
2022-10-05T09:25:55.362Z,1.92
2022-10-05T09:28:32.845Z,1.00
2022-10-05T09:31:22.395Z,1.73
2022-10-05T09:34:39.005Z,1.50
2022-10-05T09:37:30.945Z,1.40
2022-10-05T09:40:35.696Z,1.50
2022-10-05T09:43:27.792Z,1.70
2022-10-05T09:46:32.924Z,1.70
2022-10-05T09:49:22.993Z,1.50
2022-10-05T09:52:25.686Z,1.80
2022-10-05T09:55:25.613Z,1.60
2022-10-05T09:58:29.415Z,1.55
2022-10-05T10:01:34.245Z,1.87
2022-10-05T10:04:30.492Z,1.73
2022-10-05T10:07:34.128Z,1.48
2022-10-05T10:10:29.238Z,1.67
2022-10-05T10:13:25.364Z,1.40
2022-10-05T10:16:23.626Z,1.77
2022-10-05T10:19:14.757Z,1.40
2022-10-05T10:22:17.381Z,1.30
2022-10-05T10:25:21.440Z,1.10
2022-10-05T10:28:34.360Z,1.00
2022-10-05T10:31:25.890Z,1.13
2022-10-05T10:34:18.834Z,1.20
2022-10-05T10:40:36.719Z,1.02
2022-10-05T10:43:42.148Z,1.10
2022-10-05T10:46:29.461Z,0.90
2022-10-05T10:49:07.160Z,1.08
2022-10-05T10:51:58.129Z,0.95
2022-10-05T10:54:49.589Z,0.83
2022-10-05T10:57:29.545Z,0.70
2022-10-05T11:00:23.922Z,0.90
2022-10-05T11:03:49.738Z,0.90
2022-10-05T11:06:42.795Z,0.95
2022-10-05T11:09:51.546Z,0.88
2022-10-05T11:13:02.756Z,0.90
2022-10-05T11:15:58.829Z,0.90
2022-10-05T11:18:42.480Z,1.00
2022-10-05T11:21:31.787Z,0.90
2022-10-05T11:24:42.260Z,0.88
2022-10-05T11:27:25.954Z,0.97
2022-10-05T11:30:21.435Z,0.90
2022-10-05T11:33:24.368Z,0.80
2022-10-05T11:36:21.915Z,0.80
2022-10-05T11:39:15.778Z,0.90
2022-10-05T11:42:14.214Z,0.90
2022-10-05T11:45:14.090Z,0.90
2022-10-05T11:48:06.544Z,0.90
2022-10-05T11:50:43.339Z,0.60
2022-10-05T11:53:20.354Z,0.80
2022-10-05T11:56:01.460Z,0.70
2022-10-05T11:58:34.979Z,0.80
2022-10-05T12:01:17.499Z,0.90
2022-10-05T12:03:59.691Z,0.80
2022-10-05T12:06:50.369Z,1.00
2022-10-05T12:10:03.612Z,0.90
2022-10-05T12:12:39.462Z,1.00
2022-10-05T12:15:23.465Z,1.10
2022-10-05T12:18:01.371Z,1.23
2022-10-05T12:20:40.958Z,1.10
2022-10-05T12:23:18.945Z,1.20
2022-10-05T12:25:53.775Z,1.30
2022-10-05T12:28:30.980Z,1.07
2022-10-05T12:31:21.065Z,1.10
2022-10-05T12:34:00.191Z,1.20
2022-10-05T12:37:03.188Z,1.13
2022-10-05T12:39:40.402Z,1.08
2022-10-05T12:42:26.020Z,1.13
2022-10-05T12:45:25.458Z,1.20
2022-10-05T12:48:20.463Z,1.47
2022-10-05T12:50:52.129Z,1.50
2022-10-05T12:53:41.951Z,1.10
2022-10-05T12:56:21.622Z,1.02
2022-10-05T12:58:57.439Z,1.10
2022-10-05T13:01:39.724Z,1.25
2022-10-05T13:04:21.268Z,1.00
2022-10-05T13:07:13.974Z,0.90
2022-10-05T13:09:52.071Z,1.00
2022-10-05T13:12:36.025Z,0.93
2022-10-05T13:15:17.180Z,1.02
2022-10-05T13:17:55.879Z,0.90
2022-10-05T13:20:31.298Z,0.80
2022-10-05T13:23:08.549Z,0.80
2022-10-05T13:25:43.652Z,0.70
2022-10-05T13:28:22.999Z,0.80
2022-10-05T13:31:01.701Z,0.80
2022-10-05T13:34:06.943Z,0.73
2022-10-05T13:36:48.073Z,0.60
2022-10-05T13:39:28.442Z,0.60
2022-10-05T13:42:05.350Z,0.80
2022-10-05T13:44:42.974Z,0.75
2022-10-05T13:47:20.972Z,0.70
2022-10-05T13:49:55.957Z,0.70
2022-10-05T13:52:48.517Z,0.65
2022-10-05T13:55:39.328Z,0.60
2022-10-05T13:58:19.985Z,0.70
2022-10-05T14:00:52.585Z,0.70
2022-10-05T14:03:32.299Z,0.60
2022-10-05T14:06:03.667Z,0.60
2022-10-05T14:08:35.331Z,0.82
2022-10-05T14:11:26.568Z,0.70
2022-10-05T14:14:13.543Z,0.80
2022-10-05T14:16:52.083Z,0.77
2022-10-05T14:19:26.883Z,0.73
2022-10-05T14:22:02.320Z,0.73
2022-10-05T14:24:43.643Z,0.63
2022-10-05T14:27:24.552Z,0.60
2022-10-05T14:30:18.132Z,0.70
2022-10-05T14:32:55.987Z,0.90
2022-10-05T14:35:27.374Z,0.60
2022-10-05T14:38:02.242Z,0.60
2022-10-05T14:40:35.391Z,0.60
2022-10-05T14:43:20.556Z,0.57
2022-10-05T14:45:59.476Z,0.80
2022-10-05T14:48:30.264Z,0.60
2022-10-05T14:51:03.457Z,0.55
2022-10-05T14:53:41.244Z,0.50
2022-10-05T14:56:36.547Z,0.50
2022-10-05T14:59:30.157Z,0.80
2022-10-05T15:02:24.350Z,0.65
2022-10-05T15:05:02.341Z,0.68
2022-10-05T15:07:38.496Z,0.70
2022-10-05T15:10:29.492Z,0.60
2022-10-05T15:13:11.240Z,0.65
2022-10-05T15:15:50.364Z,0.70
2022-10-05T15:18:32.338Z,0.63
2022-10-05T15:21:31.150Z,0.80
2022-10-05T15:24:04.601Z,0.70
2022-10-05T15:26:48.750Z,0.70
2022-10-05T15:29:35.158Z,0.82
2022-10-05T15:32:18.181Z,0.70
2022-10-05T15:35:04.050Z,0.60
2022-10-05T15:37:43.091Z,0.80
2022-10-05T15:40:23.427Z,0.95
2022-10-05T15:42:57.038Z,0.95
2022-10-05T15:45:33.922Z,0.80
2022-10-05T15:48:08.866Z,0.70
2022-10-05T15:50:50.542Z,1.10
2022-10-05T15:53:26.301Z,1.00
2022-10-05T15:55:59.598Z,0.80
2022-10-05T15:58:55.678Z,0.80
2022-10-05T16:01:47.235Z,0.77
2022-10-05T16:04:24.431Z,0.80
2022-10-05T16:07:17.448Z,0.90
2022-10-05T16:09:57.764Z,1.08
2022-10-05T16:12:51.829Z,1.10
2022-10-05T16:15:28.853Z,0.90
2022-10-05T16:18:37.254Z,0.80
2022-10-05T16:21:18.864Z,0.73
2022-10-05T16:24:06.834Z,0.70
2022-10-05T16:26:55.777Z,0.90
2022-10-05T16:29:39.915Z,0.90
2022-10-05T16:32:15.011Z,0.90
2022-10-05T16:34:59.317Z,0.88
2022-10-05T16:37:41.025Z,0.90
2022-10-05T16:40:26.616Z,0.82
2022-10-05T16:43:06.935Z,1.10
2022-10-05T16:45:52.103Z,1.30
2022-10-05T16:48:27.279Z,1.33
2022-10-05T16:51:34.033Z,1.00
2022-10-05T16:54:19.125Z,1.00
2022-10-05T16:56:52.192Z,1.60
2022-10-05T17:00:14.869Z,1.92
2022-10-05T17:03:14.933Z,2.25
2022-10-05T17:06:18.297Z,2.10
2022-10-05T17:09:20.272Z,1.92
2022-10-05T17:12:14.002Z,1.50
2022-10-05T17:14:56.142Z,1.15
2022-10-05T17:18:11.213Z,1.23
2022-10-05T17:20:50.696Z,1.30
2022-10-05T17:23:32.062Z,0.90
2022-10-05T17:26:17.158Z,1.20
2022-10-05T17:29:01.818Z,0.90
2022-10-05T17:31:31.247Z,1.30
2022-10-05T17:34:27.283Z,1.00
2022-10-05T17:37:15.758Z,0.80
2022-10-05T17:39:51.507Z,0.98
2022-10-05T17:42:48.533Z,1.07
2022-10-05T17:45:53.953Z,0.90
2022-10-05T17:49:02.409Z,0.70
2022-10-05T17:52:23.641Z,0.90
2022-10-05T17:55:47.166Z,1.03
2022-10-05T17:59:02.050Z,1.00
2022-10-05T18:01:37.520Z,0.88
2022-10-05T18:04:39.617Z,0.80
2022-10-05T18:07:22.904Z,0.90
2022-10-05T18:10:22.425Z,1.00
2022-10-05T18:13:33.927Z,0.90
2022-10-05T18:16:02.325Z,1.00
2022-10-05T18:18:58.006Z,0.70
2022-10-05T18:21:37.748Z,1.00
2022-10-05T18:24:42.105Z,0.70
2022-10-05T18:27:38.292Z,0.95
2022-10-05T18:30:20.430Z,0.90
2022-10-05T18:33:45.482Z,0.90
2022-10-05T18:37:01.226Z,0.77
2022-10-05T18:39:59.295Z,0.80
2022-10-05T18:42:39.475Z,0.73
2022-10-05T18:45:23.628Z,0.90
2022-10-05T18:48:10.314Z,0.90
2022-10-05T18:50:47.573Z,0.82
2022-10-05T18:53:29.948Z,0.80
2022-10-05T18:56:11.171Z,0.77
2022-10-05T18:58:56.757Z,0.88
2022-10-05T19:02:03.589Z,0.60
2022-10-05T19:04:52.116Z,0.70
2022-10-05T19:07:37.074Z,1.00
2022-10-05T19:10:18.540Z,0.68
2022-10-05T19:13:05.015Z,1.00
2022-10-05T19:15:44.372Z,0.80
2022-10-05T19:18:47.436Z,0.90
2022-10-05T19:21:29.504Z,0.60
2022-10-05T19:24:31.197Z,0.80
2022-10-05T19:27:10.606Z,0.80
2022-10-05T19:30:05.077Z,0.65
2022-10-05T19:32:47.640Z,0.70
2022-10-05T19:35:26.449Z,0.60
2022-10-05T19:38:15.182Z,0.80
2022-10-05T19:40:56.585Z,0.80
2022-10-05T19:43:51.095Z,0.80
2022-10-05T19:46:34.625Z,0.80
2022-10-05T19:49:02.915Z,0.70
2022-10-05T19:51:33.967Z,0.60
2022-10-05T19:54:10.408Z,0.83
2022-10-05T19:56:50.990Z,0.70
2022-10-05T19:59:22.291Z,0.77
2022-10-05T20:01:54.026Z,0.63
2022-10-05T20:04:36.556Z,0.77
2022-10-05T20:07:05.576Z,0.90
2022-10-05T20:09:54.114Z,0.93
2022-10-05T20:12:24.014Z,0.80
2022-10-05T20:15:26.853Z,0.85
2022-10-05T20:18:12.834Z,0.70
2022-10-05T20:20:45.814Z,0.90
2022-10-05T20:23:25.097Z,0.90
2022-10-05T20:26:11.744Z,0.70
2022-10-05T20:28:41.480Z,0.70
2022-10-05T20:31:10.021Z,0.80
2022-10-05T20:33:40.240Z,0.85
2022-10-05T20:36:08.956Z,0.60
2022-10-05T20:38:40.870Z,0.82
2022-10-05T20:41:09.851Z,1.00
2022-10-05T20:43:39.344Z,0.75
2022-10-05T20:46:09.040Z,0.70
2022-10-05T20:48:37.195Z,0.60
2022-10-05T20:51:05.801Z,0.70
2022-10-05T20:53:33.993Z,0.70
2022-10-05T20:56:02.500Z,0.75
2022-10-05T20:58:31.201Z,0.60
2022-10-05T21:01:19.988Z,0.77
2022-10-05T21:03:50.532Z,0.70
2022-10-05T21:06:19.006Z,0.85
2022-10-05T21:08:47.216Z,0.63
2022-10-05T21:11:15.677Z,0.77
2022-10-05T21:13:44.770Z,0.90
2022-10-05T21:16:14.013Z,1.00
2022-10-05T21:18:44.376Z,0.80
2022-10-05T21:21:14.637Z,1.00
2022-10-05T21:23:42.793Z,0.90
2022-10-05T21:26:11.728Z,0.90
2022-10-05T21:28:40.288Z,0.88
2022-10-05T21:31:09.514Z,0.98
2022-10-05T21:33:37.961Z,0.90
2022-10-05T21:36:06.479Z,0.98
2022-10-05T21:38:36.021Z,0.98
2022-10-05T21:41:04.565Z,1.10
2022-10-05T21:43:33.032Z,1.50
2022-10-05T21:46:01.919Z,1.88
2022-10-05T21:48:32.104Z,1.23
2022-10-05T21:51:01.159Z,1.00
2022-10-05T21:53:34.377Z,1.10
2022-10-05T21:56:06.828Z,0.90
2022-10-05T21:58:35.699Z,0.70
2022-10-05T22:01:04.180Z,0.95
2022-10-05T22:03:32.894Z,0.77
2022-10-05T22:06:01.154Z,1.52
2022-10-05T22:08:33.844Z,1.65
2022-10-05T22:11:11.843Z,1.17
2022-10-05T22:13:46.252Z,1.00
2022-10-05T22:16:15.767Z,1.10
2022-10-05T22:18:44.348Z,1.20
2022-10-05T22:21:14.479Z,1.08
2022-10-05T22:23:45.167Z,1.20
2022-10-05T22:26:19.265Z,1.42
2022-10-05T22:28:48.747Z,1.30
2022-10-05T22:31:18.945Z,1.20
2022-10-05T22:33:47.178Z,1.50
2022-10-05T22:36:15.442Z,1.50
2022-10-05T22:38:44.762Z,1.40
2022-10-05T22:41:18.260Z,1.70
2022-10-05T22:43:50.167Z,1.40
2022-10-05T22:46:19.902Z,1.50
2022-10-05T22:48:48.253Z,1.83
2022-10-05T22:51:16.464Z,1.95
2022-10-05T22:53:44.624Z,1.30
2022-10-05T22:56:15.325Z,0.80
2022-10-05T22:58:45.029Z,0.52
2022-10-05T23:01:16.039Z,0.50
2022-10-05T23:03:45.048Z,0.50
2022-10-05T23:06:16.158Z,0.40
2022-10-05T23:08:45.977Z,0.60
2022-10-05T23:11:17.993Z,0.35
2022-10-05T23:13:46.272Z,0.60
2022-10-05T23:16:17.263Z,0.40
2022-10-05T23:18:46.767Z,0.40
2022-10-05T23:21:15.338Z,0.30
2022-10-05T23:23:47.353Z,0.43
2022-10-05T23:26:19.977Z,0.38
2022-10-05T23:28:49.022Z,0.50
2022-10-05T23:31:20.268Z,0.50
2022-10-05T23:33:49.207Z,0.40
2022-10-05T23:36:20.194Z,0.75
2022-10-05T23:38:49.024Z,1.23
2022-10-05T23:41:19.660Z,1.98
2022-10-05T23:43:48.336Z,0.97
2022-10-05T23:46:17.689Z,2.15
2022-10-05T23:48:46.074Z,1.10
2022-10-05T23:51:15.924Z,1.20
2022-10-05T23:53:44.549Z,1.10
2022-10-05T23:56:13.246Z,1.33
2022-10-05T23:58:42.881Z,1.30
